sensor_id;sensor_type;location;lat;lon;timestamp;temperature;humidity
59307;DHT22;47983;53.016;-2.260;2022-07-29T00:01:14;17.10;99.90
59307;DHT22;47983;53.016;-2.260;2022-07-29T00:03:46;17.10;99.90
59307;DHT22;47983;53.016;-2.260;2022-07-29T00:06:14;17.20;99.90
59307;DHT22;47983;53.016;-2.260;2022-07-29T00:08:42;17.20;99.90
59307;DHT22;47983;53.016;-2.260;2022-07-29T00:11:09;17.20;99.90
59307;DHT22;47983;53.016;-2.260;2022-07-29T00:13:37;17.10;99.90
59307;DHT22;47983;53.016;-2.260;2022-07-29T00:16:04;17.10;99.90
59307;DHT22;47983;53.016;-2.260;2022-07-29T00:18:32;17.10;99.90
59307;DHT22;47983;53.016;-2.260;2022-07-29T00:20:59;17.10;99.90
59307;DHT22;47983;53.016;-2.260;2022-07-29T00:23:27;17.10;99.90
59307;DHT22;47983;53.016;-2.260;2022-07-29T00:25:55;17.10;99.90
59307;DHT22;47983;53.016;-2.260;2022-07-29T00:28:23;17.10;99.90
59307;DHT22;47983;53.016;-2.260;2022-07-29T00:30:50;17.00;99.90
59307;DHT22;47983;53.016;-2.260;2022-07-29T00:33:18;17.00;99.90
59307;DHT22;47983;53.016;-2.260;2022-07-29T00:35:47;17.00;99.90
59307;DHT22;47983;53.016;-2.260;2022-07-29T00:38:16;17.00;99.90
59307;DHT22;47983;53.016;-2.260;2022-07-29T00:40:43;16.90;99.90
59307;DHT22;47983;53.016;-2.260;2022-07-29T00:43:11;17.00;99.90
59307;DHT22;47983;53.016;-2.260;2022-07-29T00:45:43;16.90;99.90
59307;DHT22;47983;53.016;-2.260;2022-07-29T00:48:10;16.90;99.90
59307;DHT22;47983;53.016;-2.260;2022-07-29T00:50:38;16.90;99.90
59307;DHT22;47983;53.016;-2.260;2022-07-29T00:53:06;16.90;99.90
59307;DHT22;47983;53.016;-2.260;2022-07-29T00:55:34;16.80;99.90
59307;DHT22;47983;53.016;-2.260;2022-07-29T00:58:02;16.80;99.90
59307;DHT22;47983;53.016;-2.260;2022-07-29T01:00:29;16.80;99.90
59307;DHT22;47983;53.016;-2.260;2022-07-29T01:02:57;16.70;99.90
59307;DHT22;47983;53.016;-2.260;2022-07-29T01:05:26;16.70;99.90
59307;DHT22;47983;53.016;-2.260;2022-07-29T01:08:14;16.70;99.90
59307;DHT22;47983;53.016;-2.260;2022-07-29T01:10:42;16.70;99.90
59307;DHT22;47983;53.016;-2.260;2022-07-29T01:13:11;16.70;99.90
59307;DHT22;47983;53.016;-2.260;2022-07-29T01:15:47;16.70;99.90
59307;DHT22;47983;53.016;-2.260;2022-07-29T01:18:18;16.60;99.90
59307;DHT22;47983;53.016;-2.260;2022-07-29T01:28:58;16.60;99.90
59307;DHT22;47983;53.016;-2.260;2022-07-29T01:31:46;16.60;99.90
59307;DHT22;47983;53.016;-2.260;2022-07-29T01:34:29;16.60;99.90
59307;DHT22;47983;53.016;-2.260;2022-07-29T01:37:03;16.60;99.90
59307;DHT22;47983;53.016;-2.260;2022-07-29T01:39:34;16.60;99.90
59307;DHT22;47983;53.016;-2.260;2022-07-29T01:44:34;16.60;99.90
59307;DHT22;47983;53.016;-2.260;2022-07-29T01:47:05;16.50;99.90
59307;DHT22;47983;53.016;-2.260;2022-07-29T01:49:35;16.50;99.90
59307;DHT22;47983;53.016;-2.260;2022-07-29T01:52:05;16.50;99.90
59307;DHT22;47983;53.016;-2.260;2022-07-29T01:54:43;16.50;99.90
59307;DHT22;47983;53.016;-2.260;2022-07-29T01:57:13;16.50;99.90
59307;DHT22;47983;53.016;-2.260;2022-07-29T01:59:41;16.40;99.90
59307;DHT22;47983;53.016;-2.260;2022-07-29T02:02:10;16.40;99.90
59307;DHT22;47983;53.016;-2.260;2022-07-29T02:04:40;16.40;99.90
59307;DHT22;47983;53.016;-2.260;2022-07-29T02:07:10;16.40;99.90
59307;DHT22;47983;53.016;-2.260;2022-07-29T02:09:40;16.30;99.90
59307;DHT22;47983;53.016;-2.260;2022-07-29T02:12:08;16.30;99.90
59307;DHT22;47983;53.016;-2.260;2022-07-29T02:14:42;16.30;99.90
59307;DHT22;47983;53.016;-2.260;2022-07-29T02:17:11;16.30;99.90
59307;DHT22;47983;53.016;-2.260;2022-07-29T02:19:39;16.30;99.90
59307;DHT22;47983;53.016;-2.260;2022-07-29T02:22:08;16.30;99.90
59307;DHT22;47983;53.016;-2.260;2022-07-29T02:24:36;16.30;99.90
59307;DHT22;47983;53.016;-2.260;2022-07-29T02:27:04;16.20;99.90
59307;DHT22;47983;53.016;-2.260;2022-07-29T02:29:31;16.30;99.90
59307;DHT22;47983;53.016;-2.260;2022-07-29T02:31:59;16.30;99.90
59307;DHT22;47983;53.016;-2.260;2022-07-29T02:34:27;16.20;99.90
59307;DHT22;47983;53.016;-2.260;2022-07-29T02:36:55;16.20;99.90
59307;DHT22;47983;53.016;-2.260;2022-07-29T02:39:23;16.20;99.90
59307;DHT22;47983;53.016;-2.260;2022-07-29T02:41:52;16.20;99.90
59307;DHT22;47983;53.016;-2.260;2022-07-29T02:44:23;16.20;99.90
59307;DHT22;47983;53.016;-2.260;2022-07-29T02:51:57;16.10;99.90
59307;DHT22;47983;53.016;-2.260;2022-07-29T02:56:56;16.00;99.90
59307;DHT22;47983;53.016;-2.260;2022-07-29T02:59:25;16.00;99.90
59307;DHT22;47983;53.016;-2.260;2022-07-29T03:01:54;16.10;99.90
59307;DHT22;47983;53.016;-2.260;2022-07-29T03:04:22;16.00;99.90
59307;DHT22;47983;53.016;-2.260;2022-07-29T03:06:51;16.00;99.90
59307;DHT22;47983;53.016;-2.260;2022-07-29T03:09:19;16.00;99.90
59307;DHT22;47983;53.016;-2.260;2022-07-29T03:11:47;16.00;99.90
59307;DHT22;47983;53.016;-2.260;2022-07-29T03:14:18;16.00;99.90
59307;DHT22;47983;53.016;-2.260;2022-07-29T03:16:47;15.90;99.90
59307;DHT22;47983;53.016;-2.260;2022-07-29T03:19:15;15.90;99.90
59307;DHT22;47983;53.016;-2.260;2022-07-29T03:21:43;15.90;99.90
59307;DHT22;47983;53.016;-2.260;2022-07-29T03:24:23;15.90;99.90
59307;DHT22;47983;53.016;-2.260;2022-07-29T03:26:51;15.90;99.90
59307;DHT22;47983;53.016;-2.260;2022-07-29T03:29:18;15.90;99.90
59307;DHT22;47983;53.016;-2.260;2022-07-29T03:31:46;15.90;99.90
59307;DHT22;47983;53.016;-2.260;2022-07-29T03:34:14;15.80;99.90
59307;DHT22;47983;53.016;-2.260;2022-07-29T03:36:42;15.80;99.90
59307;DHT22;47983;53.016;-2.260;2022-07-29T03:39:10;15.70;99.90
59307;DHT22;47983;53.016;-2.260;2022-07-29T03:41:39;15.70;99.90
59307;DHT22;47983;53.016;-2.260;2022-07-29T03:44:08;15.70;99.90
59307;DHT22;47983;53.016;-2.260;2022-07-29T03:46:36;15.70;99.90
59307;DHT22;47983;53.016;-2.260;2022-07-29T03:49:06;15.60;99.90
59307;DHT22;47983;53.016;-2.260;2022-07-29T03:51:35;15.60;99.90
59307;DHT22;47983;53.016;-2.260;2022-07-29T03:54:03;15.50;99.90
59307;DHT22;47983;53.016;-2.260;2022-07-29T03:56:42;15.40;99.90
59307;DHT22;47983;53.016;-2.260;2022-07-29T03:59:14;15.40;99.90
59307;DHT22;47983;53.016;-2.260;2022-07-29T04:01:42;15.30;99.90
59307;DHT22;47983;53.016;-2.260;2022-07-29T04:04:10;15.30;99.90
59307;DHT22;47983;53.016;-2.260;2022-07-29T04:06:41;15.20;99.90
59307;DHT22;47983;53.016;-2.260;2022-07-29T04:09:25;15.20;99.90
59307;DHT22;47983;53.016;-2.260;2022-07-29T04:11:52;15.20;99.90
59307;DHT22;47983;53.016;-2.260;2022-07-29T04:14:33;15.20;99.90
59307;DHT22;47983;53.016;-2.260;2022-07-29T04:17:01;15.10;99.90
59307;DHT22;47983;53.016;-2.260;2022-07-29T04:19:29;15.10;99.90
59307;DHT22;47983;53.016;-2.260;2022-07-29T04:21:57;15.00;99.90
59307;DHT22;47983;53.016;-2.260;2022-07-29T04:24:24;15.00;99.90
59307;DHT22;47983;53.016;-2.260;2022-07-29T04:26:52;15.00;99.90
59307;DHT22;47983;53.016;-2.260;2022-07-29T04:29:20;15.00;99.90
59307;DHT22;47983;53.016;-2.260;2022-07-29T04:31:49;15.00;99.90
59307;DHT22;47983;53.016;-2.260;2022-07-29T04:34:16;15.00;99.90
59307;DHT22;47983;53.016;-2.260;2022-07-29T04:36:45;15.00;99.90
59307;DHT22;47983;53.016;-2.260;2022-07-29T04:39:12;15.00;99.90
59307;DHT22;47983;53.016;-2.260;2022-07-29T04:41:45;15.00;99.90
59307;DHT22;47983;53.016;-2.260;2022-07-29T04:44:13;14.90;99.90
59307;DHT22;47983;53.016;-2.260;2022-07-29T04:46:41;15.00;99.90
59307;DHT22;47983;53.016;-2.260;2022-07-29T04:49:08;15.00;99.90
59307;DHT22;47983;53.016;-2.260;2022-07-29T04:51:36;15.00;99.90
59307;DHT22;47983;53.016;-2.260;2022-07-29T04:54:03;15.00;99.90
59307;DHT22;47983;53.016;-2.260;2022-07-29T04:56:31;15.00;99.90
59307;DHT22;47983;53.016;-2.260;2022-07-29T04:58:59;15.00;99.90
59307;DHT22;47983;53.016;-2.260;2022-07-29T05:01:26;15.00;99.90
59307;DHT22;47983;53.016;-2.260;2022-07-29T05:03:54;15.00;99.90
59307;DHT22;47983;53.016;-2.260;2022-07-29T05:06:26;15.00;99.90
59307;DHT22;47983;53.016;-2.260;2022-07-29T05:08:54;15.00;99.90
59307;DHT22;47983;53.016;-2.260;2022-07-29T05:11:21;15.00;99.90
59307;DHT22;47983;53.016;-2.260;2022-07-29T05:13:56;15.00;99.90
59307;DHT22;47983;53.016;-2.260;2022-07-29T05:16:23;15.00;99.90
59307;DHT22;47983;53.016;-2.260;2022-07-29T05:18:51;15.00;99.90
59307;DHT22;47983;53.016;-2.260;2022-07-29T05:21:18;14.90;99.90
59307;DHT22;47983;53.016;-2.260;2022-07-29T05:23:46;14.90;99.90
59307;DHT22;47983;53.016;-2.260;2022-07-29T05:26:13;14.90;99.90
59307;DHT22;47983;53.016;-2.260;2022-07-29T05:28:41;14.90;99.90
59307;DHT22;47983;53.016;-2.260;2022-07-29T05:31:08;14.90;99.90
59307;DHT22;47983;53.016;-2.260;2022-07-29T05:33:36;14.80;99.90
59307;DHT22;47983;53.016;-2.260;2022-07-29T05:36:04;14.80;99.90
59307;DHT22;47983;53.016;-2.260;2022-07-29T05:38:34;14.80;99.90
59307;DHT22;47983;53.016;-2.260;2022-07-29T05:41:03;14.80;99.90
59307;DHT22;47983;53.016;-2.260;2022-07-29T05:43:31;14.80;99.90
59307;DHT22;47983;53.016;-2.260;2022-07-29T05:45:58;14.80;99.90
59307;DHT22;47983;53.016;-2.260;2022-07-29T05:48:26;14.80;99.90
59307;DHT22;47983;53.016;-2.260;2022-07-29T05:50:54;14.90;99.90
59307;DHT22;47983;53.016;-2.260;2022-07-29T05:53:22;14.80;99.90
59307;DHT22;47983;53.016;-2.260;2022-07-29T05:55:49;14.90;99.90
59307;DHT22;47983;53.016;-2.260;2022-07-29T05:58:17;14.90;99.90
59307;DHT22;47983;53.016;-2.260;2022-07-29T06:00:44;14.90;99.90
59307;DHT22;47983;53.016;-2.260;2022-07-29T06:03:12;15.00;99.90
59307;DHT22;47983;53.016;-2.260;2022-07-29T06:05:39;15.00;99.90
59307;DHT22;47983;53.016;-2.260;2022-07-29T06:08:07;15.00;99.90
59307;DHT22;47983;53.016;-2.260;2022-07-29T06:10:35;15.00;99.90
59307;DHT22;47983;53.016;-2.260;2022-07-29T06:13:02;15.00;99.90
59307;DHT22;47983;53.016;-2.260;2022-07-29T06:15:30;14.90;99.90
59307;DHT22;47983;53.016;-2.260;2022-07-29T06:17:57;15.00;99.90
59307;DHT22;47983;53.016;-2.260;2022-07-29T06:20:27;14.90;99.90
59307;DHT22;47983;53.016;-2.260;2022-07-29T06:22:57;15.00;99.90
59307;DHT22;47983;53.016;-2.260;2022-07-29T06:25:24;14.90;99.90
59307;DHT22;47983;53.016;-2.260;2022-07-29T06:27:52;14.90;99.90
59307;DHT22;47983;53.016;-2.260;2022-07-29T06:30:19;15.00;99.90
59307;DHT22;47983;53.016;-2.260;2022-07-29T06:32:47;15.00;99.90
59307;DHT22;47983;53.016;-2.260;2022-07-29T06:35:15;15.00;99.90
59307;DHT22;47983;53.016;-2.260;2022-07-29T06:38:02;15.00;99.90
59307;DHT22;47983;53.016;-2.260;2022-07-29T06:40:50;15.00;99.90
59307;DHT22;47983;53.016;-2.260;2022-07-29T06:43:34;15.00;99.90
59307;DHT22;47983;53.016;-2.260;2022-07-29T06:46:18;15.10;99.90
59307;DHT22;47983;53.016;-2.260;2022-07-29T06:48:46;15.10;99.90
59307;DHT22;47983;53.016;-2.260;2022-07-29T06:51:16;15.20;99.90
59307;DHT22;47983;53.016;-2.260;2022-07-29T06:53:50;15.20;99.90
59307;DHT22;47983;53.016;-2.260;2022-07-29T06:56:30;15.30;99.90
59307;DHT22;47983;53.016;-2.260;2022-07-29T06:59:06;15.30;99.90
59307;DHT22;47983;53.016;-2.260;2022-07-29T07:01:35;15.40;99.90
59307;DHT22;47983;53.016;-2.260;2022-07-29T07:04:02;15.50;99.90
59307;DHT22;47983;53.016;-2.260;2022-07-29T07:06:30;15.50;99.90
59307;DHT22;47983;53.016;-2.260;2022-07-29T07:08:57;15.50;99.90
59307;DHT22;47983;53.016;-2.260;2022-07-29T07:11:25;15.60;99.90
59307;DHT22;47983;53.016;-2.260;2022-07-29T07:13:53;15.60;99.90
59307;DHT22;47983;53.016;-2.260;2022-07-29T07:16:25;15.60;99.90
59307;DHT22;47983;53.016;-2.260;2022-07-29T07:18:53;15.70;99.90
59307;DHT22;47983;53.016;-2.260;2022-07-29T07:21:20;15.60;99.90
59307;DHT22;47983;53.016;-2.260;2022-07-29T07:23:48;15.60;99.90
59307;DHT22;47983;53.016;-2.260;2022-07-29T07:26:15;15.60;99.90
59307;DHT22;47983;53.016;-2.260;2022-07-29T07:28:43;15.70;99.90
59307;DHT22;47983;53.016;-2.260;2022-07-29T07:31:11;15.70;99.90
59307;DHT22;47983;53.016;-2.260;2022-07-29T07:33:39;15.70;99.90
59307;DHT22;47983;53.016;-2.260;2022-07-29T07:36:06;15.70;99.90
59307;DHT22;47983;53.016;-2.260;2022-07-29T07:38:34;15.80;99.90
59307;DHT22;47983;53.016;-2.260;2022-07-29T07:41:01;15.80;99.90
59307;DHT22;47983;53.016;-2.260;2022-07-29T07:43:29;15.90;99.90
59307;DHT22;47983;53.016;-2.260;2022-07-29T07:45:57;16.00;99.90
59307;DHT22;47983;53.016;-2.260;2022-07-29T07:48:24;16.00;99.90
59307;DHT22;47983;53.016;-2.260;2022-07-29T07:50:52;16.10;99.90
59307;DHT22;47983;53.016;-2.260;2022-07-29T07:53:19;16.20;99.90
59307;DHT22;47983;53.016;-2.260;2022-07-29T07:55:47;16.30;99.90
59307;DHT22;47983;53.016;-2.260;2022-07-29T07:58:34;16.30;99.90
59307;DHT22;47983;53.016;-2.260;2022-07-29T08:01:02;16.30;99.90
59307;DHT22;47983;53.016;-2.260;2022-07-29T08:03:30;16.30;99.90
59307;DHT22;47983;53.016;-2.260;2022-07-29T08:05:57;16.30;99.90
59307;DHT22;47983;53.016;-2.260;2022-07-29T08:08:25;16.30;99.90
59307;DHT22;47983;53.016;-2.260;2022-07-29T08:10:52;16.30;99.90
59307;DHT22;47983;53.016;-2.260;2022-07-29T08:13:20;16.30;99.90
59307;DHT22;47983;53.016;-2.260;2022-07-29T08:15:48;16.40;99.90
59307;DHT22;47983;53.016;-2.260;2022-07-29T08:18:25;16.40;99.90
59307;DHT22;47983;53.016;-2.260;2022-07-29T08:20:53;16.40;99.90
59307;DHT22;47983;53.016;-2.260;2022-07-29T08:23:21;16.50;99.90
59307;DHT22;47983;53.016;-2.260;2022-07-29T08:25:51;16.60;99.90
59307;DHT22;47983;53.016;-2.260;2022-07-29T08:28:21;16.60;99.90
59307;DHT22;47983;53.016;-2.260;2022-07-29T08:30:52;16.70;99.90
59307;DHT22;47983;53.016;-2.260;2022-07-29T08:33:19;16.80;99.90
59307;DHT22;47983;53.016;-2.260;2022-07-29T08:35:47;16.80;99.90
59307;DHT22;47983;53.016;-2.260;2022-07-29T08:38:14;16.90;99.90
59307;DHT22;47983;53.016;-2.260;2022-07-29T08:40:42;16.90;99.90
59307;DHT22;47983;53.016;-2.260;2022-07-29T08:43:10;17.00;99.90
59307;DHT22;47983;53.016;-2.260;2022-07-29T08:45:47;17.10;99.90
59307;DHT22;47983;53.016;-2.260;2022-07-29T08:48:16;17.20;99.90
59307;DHT22;47983;53.016;-2.260;2022-07-29T08:50:44;17.30;99.90
59307;DHT22;47983;53.016;-2.260;2022-07-29T08:53:13;17.40;99.90
59307;DHT22;47983;53.016;-2.260;2022-07-29T08:55:47;17.50;99.90
59307;DHT22;47983;53.016;-2.260;2022-07-29T08:58:16;17.60;99.90
59307;DHT22;47983;53.016;-2.260;2022-07-29T09:00:46;17.70;99.90
59307;DHT22;47983;53.016;-2.260;2022-07-29T09:03:18;17.80;99.90
59307;DHT22;47983;53.016;-2.260;2022-07-29T09:05:46;17.90;99.90
59307;DHT22;47983;53.016;-2.260;2022-07-29T09:08:15;18.00;99.90
59307;DHT22;47983;53.016;-2.260;2022-07-29T09:10:43;18.00;99.90
59307;DHT22;47983;53.016;-2.260;2022-07-29T09:13:10;18.10;99.90
59307;DHT22;47983;53.016;-2.260;2022-07-29T09:15:38;18.20;99.90
59307;DHT22;47983;53.016;-2.260;2022-07-29T09:18:05;18.30;99.90
59307;DHT22;47983;53.016;-2.260;2022-07-29T09:20:33;18.40;99.90
59307;DHT22;47983;53.016;-2.260;2022-07-29T09:23:19;18.60;99.90
59307;DHT22;47983;53.016;-2.260;2022-07-29T09:25:50;18.70;99.90
59307;DHT22;47983;53.016;-2.260;2022-07-29T09:28:18;18.90;99.90
59307;DHT22;47983;53.016;-2.260;2022-07-29T09:33:20;19.10;99.90
59307;DHT22;47983;53.016;-2.260;2022-07-29T09:36:04;19.20;99.90
59307;DHT22;47983;53.016;-2.260;2022-07-29T09:38:32;19.30;99.90
59307;DHT22;47983;53.016;-2.260;2022-07-29T09:41:02;19.40;99.90
59307;DHT22;47983;53.016;-2.260;2022-07-29T09:43:33;19.40;99.90
59307;DHT22;47983;53.016;-2.260;2022-07-29T09:46:13;19.50;99.90
59307;DHT22;47983;53.016;-2.260;2022-07-29T09:48:41;19.60;99.90
59307;DHT22;47983;53.016;-2.260;2022-07-29T09:51:18;19.60;99.90
59307;DHT22;47983;53.016;-2.260;2022-07-29T09:53:52;19.70;99.90
59307;DHT22;47983;53.016;-2.260;2022-07-29T09:56:37;19.70;99.90
59307;DHT22;47983;53.016;-2.260;2022-07-29T09:59:05;19.80;99.90
59307;DHT22;47983;53.016;-2.260;2022-07-29T10:01:33;19.80;99.90
59307;DHT22;47983;53.016;-2.260;2022-07-29T10:04:01;19.80;99.90
59307;DHT22;47983;53.016;-2.260;2022-07-29T10:06:29;19.90;99.90
59307;DHT22;47983;53.016;-2.260;2022-07-29T10:09:18;20.00;99.90
59307;DHT22;47983;53.016;-2.260;2022-07-29T10:14:32;20.10;99.90
59307;DHT22;47983;53.016;-2.260;2022-07-29T10:17:00;20.10;99.90
59307;DHT22;47983;53.016;-2.260;2022-07-29T10:19:29;20.10;99.90
59307;DHT22;47983;53.016;-2.260;2022-07-29T10:21:57;20.20;99.90
59307;DHT22;47983;53.016;-2.260;2022-07-29T10:24:26;20.20;99.90
59307;DHT22;47983;53.016;-2.260;2022-07-29T10:26:59;20.30;99.90
59307;DHT22;47983;53.016;-2.260;2022-07-29T10:29:27;20.40;99.90
59307;DHT22;47983;53.016;-2.260;2022-07-29T10:32:07;20.40;99.90
59307;DHT22;47983;53.016;-2.260;2022-07-29T10:40:39;20.50;99.90
59307;DHT22;47983;53.016;-2.260;2022-07-29T10:43:33;20.50;99.90
59307;DHT22;47983;53.016;-2.260;2022-07-29T10:46:03;20.50;99.90
59307;DHT22;47983;53.016;-2.260;2022-07-29T10:48:34;20.40;99.90
59307;DHT22;47983;53.016;-2.260;2022-07-29T10:51:04;20.40;99.90
59307;DHT22;47983;53.016;-2.260;2022-07-29T10:53:46;20.50;99.90
59307;DHT22;47983;53.016;-2.260;2022-07-29T10:56:27;20.50;99.90
59307;DHT22;47983;53.016;-2.260;2022-07-29T11:02:03;20.80;99.90
59307;DHT22;47983;53.016;-2.260;2022-07-29T11:05:13;20.80;99.90
59307;DHT22;47983;53.016;-2.260;2022-07-29T11:10:47;21.00;99.90
59307;DHT22;47983;53.016;-2.260;2022-07-29T11:16:07;21.20;99.90
59307;DHT22;47983;53.016;-2.260;2022-07-29T11:19:18;21.30;99.90
59307;DHT22;47983;53.016;-2.260;2022-07-29T11:21:36;21.40;99.90
59307;DHT22;47983;53.016;-2.260;2022-07-29T11:24:23;21.40;99.90
59307;DHT22;47983;53.016;-2.260;2022-07-29T11:29:54;21.80;99.90
59307;DHT22;47983;53.016;-2.260;2022-07-29T11:32:23;21.90;99.30
59307;DHT22;47983;53.016;-2.260;2022-07-29T11:35:10;22.10;99.60
59307;DHT22;47983;53.016;-2.260;2022-07-29T11:47:03;21.90;99.10
59307;DHT22;47983;53.016;-2.260;2022-07-29T11:49:05;21.80;99.40
59307;DHT22;47983;53.016;-2.260;2022-07-29T11:51:36;21.70;99.50
59307;DHT22;47983;53.016;-2.260;2022-07-29T11:54:14;21.70;99.50
59307;DHT22;47983;53.016;-2.260;2022-07-29T11:56:53;21.60;99.80
59307;DHT22;47983;53.016;-2.260;2022-07-29T11:59:21;21.50;99.90
59307;DHT22;47983;53.016;-2.260;2022-07-29T12:01:59;21.60;99.90
59307;DHT22;47983;53.016;-2.260;2022-07-29T12:04:51;21.60;99.90
59307;DHT22;47983;53.016;-2.260;2022-07-29T12:07:19;21.60;99.60
59307;DHT22;47983;53.016;-2.260;2022-07-29T12:10:01;21.50;99.90
59307;DHT22;47983;53.016;-2.260;2022-07-29T12:12:29;21.50;99.90
59307;DHT22;47983;53.016;-2.260;2022-07-29T12:14:57;21.50;99.90
59307;DHT22;47983;53.016;-2.260;2022-07-29T12:17:30;21.40;99.90
59307;DHT22;47983;53.016;-2.260;2022-07-29T12:19:59;21.50;99.80
59307;DHT22;47983;53.016;-2.260;2022-07-29T12:25:00;21.40;99.50
59307;DHT22;47983;53.016;-2.260;2022-07-29T12:27:57;21.30;99.50
59307;DHT22;47983;53.016;-2.260;2022-07-29T12:30:33;21.20;99.70
59307;DHT22;47983;53.016;-2.260;2022-07-29T12:33:01;21.20;99.90
59307;DHT22;47983;53.016;-2.260;2022-07-29T12:35:37;21.20;99.90
59307;DHT22;47983;53.016;-2.260;2022-07-29T12:38:05;21.30;99.90
59307;DHT22;47983;53.016;-2.260;2022-07-29T12:40:33;21.30;99.70
59307;DHT22;47983;53.016;-2.260;2022-07-29T12:43:23;21.40;99.80
59307;DHT22;47983;53.016;-2.260;2022-07-29T12:45:49;21.50;99.90
59307;DHT22;47983;53.016;-2.260;2022-07-29T12:48:17;21.70;99.80
59307;DHT22;47983;53.016;-2.260;2022-07-29T12:50:59;21.70;99.60
59307;DHT22;47983;53.016;-2.260;2022-07-29T12:53:27;21.90;99.40
59307;DHT22;47983;53.016;-2.260;2022-07-29T12:55:55;21.90;99.30
59307;DHT22;47983;53.016;-2.260;2022-07-29T12:58:30;22.00;99.30
59307;DHT22;47983;53.016;-2.260;2022-07-29T13:01:02;22.10;98.90
59307;DHT22;47983;53.016;-2.260;2022-07-29T13:06:42;22.20;98.40
59307;DHT22;47983;53.016;-2.260;2022-07-29T13:09:19;22.20;98.30
59307;DHT22;47983;53.016;-2.260;2022-07-29T13:11:47;22.30;98.00
59307;DHT22;47983;53.016;-2.260;2022-07-29T13:14:29;22.30;97.90
59307;DHT22;47983;53.016;-2.260;2022-07-29T13:19:33;22.30;98.20
59307;DHT22;47983;53.016;-2.260;2022-07-29T13:22:01;22.40;98.30
59307;DHT22;47983;53.016;-2.260;2022-07-29T13:24:28;22.50;98.30
59307;DHT22;47983;53.016;-2.260;2022-07-29T13:26:56;22.60;98.50
59307;DHT22;47983;53.016;-2.260;2022-07-29T13:29:24;22.80;97.80
59307;DHT22;47983;53.016;-2.260;2022-07-29T13:31:57;22.90;97.40
59307;DHT22;47983;53.016;-2.260;2022-07-29T13:34:25;23.10;96.30
59307;DHT22;47983;53.016;-2.260;2022-07-29T13:36:53;23.20;96.00
59307;DHT22;47983;53.016;-2.260;2022-07-29T13:39:21;23.20;96.20
59307;DHT22;47983;53.016;-2.260;2022-07-29T13:41:48;23.20;96.10
59307;DHT22;47983;53.016;-2.260;2022-07-29T13:44:17;23.20;96.30
59307;DHT22;47983;53.016;-2.260;2022-07-29T13:46:44;23.10;95.90
59307;DHT22;47983;53.016;-2.260;2022-07-29T13:49:12;23.10;96.10
59307;DHT22;47983;53.016;-2.260;2022-07-29T13:51:39;23.10;96.30
59307;DHT22;47983;53.016;-2.260;2022-07-29T13:54:08;23.00;96.10
59307;DHT22;47983;53.016;-2.260;2022-07-29T13:56:35;23.10;96.40
59307;DHT22;47983;53.016;-2.260;2022-07-29T13:59:02;23.20;96.60
59307;DHT22;47983;53.016;-2.260;2022-07-29T14:01:30;23.30;96.80
59307;DHT22;47983;53.016;-2.260;2022-07-29T14:03:58;23.30;96.70
59307;DHT22;47983;53.016;-2.260;2022-07-29T14:06:25;23.40;96.70
59307;DHT22;47983;53.016;-2.260;2022-07-29T14:08:55;23.40;96.70
59307;DHT22;47983;53.016;-2.260;2022-07-29T14:11:22;23.50;96.70
59307;DHT22;47983;53.016;-2.260;2022-07-29T14:13:50;23.50;95.90
59307;DHT22;47983;53.016;-2.260;2022-07-29T14:16:18;23.50;95.50
59307;DHT22;47983;53.016;-2.260;2022-07-29T14:18:46;23.50;95.90
59307;DHT22;47983;53.016;-2.260;2022-07-29T14:21:13;23.50;95.90
59307;DHT22;47983;53.016;-2.260;2022-07-29T14:23:41;23.50;95.70
59307;DHT22;47983;53.016;-2.260;2022-07-29T14:26:11;23.40;95.70
59307;DHT22;47983;53.016;-2.260;2022-07-29T14:28:48;23.40;95.70
59307;DHT22;47983;53.016;-2.260;2022-07-29T14:31:16;23.40;95.70
59307;DHT22;47983;53.016;-2.260;2022-07-29T14:33:44;23.30;95.90
59307;DHT22;47983;53.016;-2.260;2022-07-29T14:36:15;23.20;95.90
59307;DHT22;47983;53.016;-2.260;2022-07-29T14:38:44;23.20;95.70
59307;DHT22;47983;53.016;-2.260;2022-07-29T14:41:13;23.10;95.60
59307;DHT22;47983;53.016;-2.260;2022-07-29T14:43:40;23.00;95.60
59307;DHT22;47983;53.016;-2.260;2022-07-29T14:46:09;23.00;95.70
59307;DHT22;47983;53.016;-2.260;2022-07-29T14:48:37;23.00;95.90
59307;DHT22;47983;53.016;-2.260;2022-07-29T14:51:05;23.00;95.80
59307;DHT22;47983;53.016;-2.260;2022-07-29T14:53:32;23.10;95.80
59307;DHT22;47983;53.016;-2.260;2022-07-29T14:56:00;23.10;95.90
59307;DHT22;47983;53.016;-2.260;2022-07-29T14:58:48;23.10;95.90
59307;DHT22;47983;53.016;-2.260;2022-07-29T15:01:18;23.10;95.60
59307;DHT22;47983;53.016;-2.260;2022-07-29T15:03:45;23.10;95.60
59307;DHT22;47983;53.016;-2.260;2022-07-29T15:06:13;23.10;95.70
59307;DHT22;47983;53.016;-2.260;2022-07-29T15:08:41;23.10;95.70
59307;DHT22;47983;53.016;-2.260;2022-07-29T15:11:08;23.00;95.60
59307;DHT22;47983;53.016;-2.260;2022-07-29T15:13:36;22.90;95.60
59307;DHT22;47983;53.016;-2.260;2022-07-29T15:16:04;22.80;95.60
59307;DHT22;47983;53.016;-2.260;2022-07-29T15:18:32;22.60;95.50
59307;DHT22;47983;53.016;-2.260;2022-07-29T15:20:59;22.50;95.60
59307;DHT22;47983;53.016;-2.260;2022-07-29T15:23:28;22.40;95.80
59307;DHT22;47983;53.016;-2.260;2022-07-29T15:25:56;22.30;95.90
59307;DHT22;47983;53.016;-2.260;2022-07-29T15:28:23;22.20;96.10
59307;DHT22;47983;53.016;-2.260;2022-07-29T15:30:51;22.20;96.50
59307;DHT22;47983;53.016;-2.260;2022-07-29T15:33:20;22.20;96.50
59307;DHT22;47983;53.016;-2.260;2022-07-29T15:35:47;22.10;96.50
59307;DHT22;47983;53.016;-2.260;2022-07-29T15:38:15;22.20;96.70
59307;DHT22;47983;53.016;-2.260;2022-07-29T15:40:43;22.20;96.70
59307;DHT22;47983;53.016;-2.260;2022-07-29T15:43:12;22.20;96.90
59307;DHT22;47983;53.016;-2.260;2022-07-29T15:45:41;22.20;97.00
59307;DHT22;47983;53.016;-2.260;2022-07-29T15:48:29;22.10;97.10
59307;DHT22;47983;53.016;-2.260;2022-07-29T15:50:57;22.10;97.40
59307;DHT22;47983;53.016;-2.260;2022-07-29T15:53:25;22.10;97.60
59307;DHT22;47983;53.016;-2.260;2022-07-29T15:55:53;22.10;97.60
59307;DHT22;47983;53.016;-2.260;2022-07-29T15:58:20;22.10;97.80
59307;DHT22;47983;53.016;-2.260;2022-07-29T16:00:49;22.10;98.10
59307;DHT22;47983;53.016;-2.260;2022-07-29T16:03:16;22.20;98.30
59307;DHT22;47983;53.016;-2.260;2022-07-29T16:05:44;22.20;98.10
59307;DHT22;47983;53.016;-2.260;2022-07-29T16:08:11;22.20;97.60
59307;DHT22;47983;53.016;-2.260;2022-07-29T16:10:39;22.30;97.80
59307;DHT22;47983;53.016;-2.260;2022-07-29T16:13:07;22.30;97.20
59307;DHT22;47983;53.016;-2.260;2022-07-29T16:15:34;22.40;97.50
59307;DHT22;47983;53.016;-2.260;2022-07-29T16:18:02;22.30;97.60
59307;DHT22;47983;53.016;-2.260;2022-07-29T16:20:30;22.30;97.50
59307;DHT22;47983;53.016;-2.260;2022-07-29T16:22:57;22.30;97.60
59307;DHT22;47983;53.016;-2.260;2022-07-29T16:25:25;22.40;97.60
59307;DHT22;47983;53.016;-2.260;2022-07-29T16:28:12;22.40;97.60
59307;DHT22;47983;53.016;-2.260;2022-07-29T16:30:39;22.50;97.90
59307;DHT22;47983;53.016;-2.260;2022-07-29T16:33:07;22.50;97.90